sensor_id;sensor_type;location;lat;lon;timestamp;P1;durP1;ratioP1;P2;durP2;ratioP2
4290;SDS011;2159;50.906;7.152;2023-05-13T00:01:04;7.27;;;6.17;;
4290;SDS011;2159;50.906;7.152;2023-05-13T00:03:33;8.63;;;5.80;;
4290;SDS011;2159;50.906;7.152;2023-05-13T00:06:00;8.23;;;5.70;;
4290;SDS011;2159;50.906;7.152;2023-05-13T00:08:28;6.33;;;5.83;;
4290;SDS011;2159;50.906;7.152;2023-05-13T00:10:56;6.10;;;5.60;;
4290;SDS011;2159;50.906;7.152;2023-05-13T00:13:23;6.60;;;5.57;;
4290;SDS011;2159;50.906;7.152;2023-05-13T00:15:50;6.23;;;5.73;;
4290;SDS011;2159;50.906;7.152;2023-05-13T00:18:18;6.37;;;5.67;;
4290;SDS011;2159;50.906;7.152;2023-05-13T00:20:47;7.90;;;5.57;;
4290;SDS011;2159;50.906;7.152;2023-05-13T00:23:14;6.40;;;5.80;;
4290;SDS011;2159;50.906;7.152;2023-05-13T00:25:42;7.93;;;6.07;;
4290;SDS011;2159;50.906;7.152;2023-05-13T00:28:10;8.23;;;5.90;;
4290;SDS011;2159;50.906;7.152;2023-05-13T00:30:39;8.10;;;6.20;;
4290;SDS011;2159;50.906;7.152;2023-05-13T00:33:07;8.40;;;6.20;;
4290;SDS011;2159;50.906;7.152;2023-05-13T00:35:34;7.53;;;6.13;;
4290;SDS011;2159;50.906;7.152;2023-05-13T00:38:03;6.90;;;5.80;;
4290;SDS011;2159;50.906;7.152;2023-05-13T00:40:31;7.57;;;5.50;;
4290;SDS011;2159;50.906;7.152;2023-05-13T00:42:59;8.20;;;6.40;;
4290;SDS011;2159;50.906;7.152;2023-05-13T00:45:27;8.23;;;5.80;;
4290;SDS011;2159;50.906;7.152;2023-05-13T00:47:54;6.37;;;5.77;;
4290;SDS011;2159;50.906;7.152;2023-05-13T00:50:22;9.70;;;5.87;;
4290;SDS011;2159;50.906;7.152;2023-05-13T00:52:50;6.70;;;5.90;;
4290;SDS011;2159;50.906;7.152;2023-05-13T00:55:20;7.00;;;5.77;;
4290;SDS011;2159;50.906;7.152;2023-05-13T00:57:47;7.43;;;6.03;;
4290;SDS011;2159;50.906;7.152;2023-05-13T01:00:15;11.60;;;6.13;;
4290;SDS011;2159;50.906;7.152;2023-05-13T01:02:44;7.97;;;5.60;;
4290;SDS011;2159;50.906;7.152;2023-05-13T01:05:14;7.20;;;6.07;;
4290;SDS011;2159;50.906;7.152;2023-05-13T01:07:45;6.50;;;5.80;;
4290;SDS011;2159;50.906;7.152;2023-05-13T01:10:19;6.57;;;5.97;;
4290;SDS011;2159;50.906;7.152;2023-05-13T01:12:49;8.30;;;5.53;;
4290;SDS011;2159;50.906;7.152;2023-05-13T01:15:19;10.20;;;6.10;;
4290;SDS011;2159;50.906;7.152;2023-05-13T01:17:48;6.60;;;6.00;;
4290;SDS011;2159;50.906;7.152;2023-05-13T01:20:17;6.10;;;5.60;;
4290;SDS011;2159;50.906;7.152;2023-05-13T01:22:46;8.80;;;5.30;;
4290;SDS011;2159;50.906;7.152;2023-05-13T01:25:13;12.10;;;5.77;;
4290;SDS011;2159;50.906;7.152;2023-05-13T01:27:41;7.00;;;5.93;;
4290;SDS011;2159;50.906;7.152;2023-05-13T01:30:09;6.47;;;5.97;;
4290;SDS011;2159;50.906;7.152;2023-05-13T01:32:37;10.20;;;6.83;;
4290;SDS011;2159;50.906;7.152;2023-05-13T01:35:05;9.33;;;6.23;;
4290;SDS011;2159;50.906;7.152;2023-05-13T01:37:33;9.93;;;6.00;;
4290;SDS011;2159;50.906;7.152;2023-05-13T01:40:03;6.60;;;5.80;;
4290;SDS011;2159;50.906;7.152;2023-05-13T01:42:42;6.50;;;5.60;;
4290;SDS011;2159;50.906;7.152;2023-05-13T01:45:10;6.87;;;5.80;;
4290;SDS011;2159;50.906;7.152;2023-05-13T01:47:37;6.87;;;6.27;;
4290;SDS011;2159;50.906;7.152;2023-05-13T01:50:05;9.30;;;6.50;;
4290;SDS011;2159;50.906;7.152;2023-05-13T01:52:33;8.20;;;6.57;;
4290;SDS011;2159;50.906;7.152;2023-05-13T01:55:02;8.57;;;6.13;;
4290;SDS011;2159;50.906;7.152;2023-05-13T01:57:30;7.07;;;6.37;;
4290;SDS011;2159;50.906;7.152;2023-05-13T01:59:57;8.07;;;6.10;;
4290;SDS011;2159;50.906;7.152;2023-05-13T02:02:25;8.50;;;6.77;;
4290;SDS011;2159;50.906;7.152;2023-05-13T02:04:52;6.40;;;5.60;;
4290;SDS011;2159;50.906;7.152;2023-05-13T02:07:20;8.90;;;6.40;;
4290;SDS011;2159;50.906;7.152;2023-05-13T02:09:47;7.20;;;6.50;;
4290;SDS011;2159;50.906;7.152;2023-05-13T02:12:16;9.70;;;6.63;;
4290;SDS011;2159;50.906;7.152;2023-05-13T02:14:43;7.27;;;6.53;;
4290;SDS011;2159;50.906;7.152;2023-05-13T02:17:11;7.17;;;6.47;;
4290;SDS011;2159;50.906;7.152;2023-05-13T02:19:38;7.20;;;6.50;;
4290;SDS011;2159;50.906;7.152;2023-05-13T02:22:06;7.70;;;6.40;;
4290;SDS011;2159;50.906;7.152;2023-05-13T02:24:33;8.40;;;6.30;;
4290;SDS011;2159;50.906;7.152;2023-05-13T02:27:05;12.00;;;6.70;;
4290;SDS011;2159;50.906;7.152;2023-05-13T02:29:34;6.80;;;5.90;;
4290;SDS011;2159;50.906;7.152;2023-05-13T02:32:01;8.83;;;7.10;;
4290;SDS011;2159;50.906;7.152;2023-05-13T02:34:29;6.77;;;6.13;;
4290;SDS011;2159;50.906;7.152;2023-05-13T02:36:56;6.73;;;5.83;;
4290;SDS011;2159;50.906;7.152;2023-05-13T02:39:24;7.30;;;6.20;;
4290;SDS011;2159;50.906;7.152;2023-05-13T02:41:51;9.50;;;6.03;;
4290;SDS011;2159;50.906;7.152;2023-05-13T02:44:19;6.57;;;5.97;;
4290;SDS011;2159;50.906;7.152;2023-05-13T02:46:48;8.43;;;6.37;;
4290;SDS011;2159;50.906;7.152;2023-05-13T02:49:16;8.00;;;6.50;;
4290;SDS011;2159;50.906;7.152;2023-05-13T02:51:43;9.27;;;6.50;;
4290;SDS011;2159;50.906;7.152;2023-05-13T02:54:11;6.87;;;6.27;;
4290;SDS011;2159;50.906;7.152;2023-05-13T02:56:39;6.37;;;5.70;;
4290;SDS011;2159;50.906;7.152;2023-05-13T02:59:06;12.60;;;6.30;;
4290;SDS011;2159;50.906;7.152;2023-05-13T03:01:34;6.63;;;6.03;;
4290;SDS011;2159;50.906;7.152;2023-05-13T03:04:03;6.97;;;6.37;;
4290;SDS011;2159;50.906;7.152;2023-05-13T03:06:31;7.10;;;6.40;;
4290;SDS011;2159;50.906;7.152;2023-05-13T03:08:58;6.57;;;5.87;;
4290;SDS011;2159;50.906;7.152;2023-05-13T03:11:25;6.80;;;6.17;;
4290;SDS011;2159;50.906;7.152;2023-05-13T03:13:53;6.73;;;6.13;;
4290;SDS011;2159;50.906;7.152;2023-05-13T03:16:21;9.20;;;6.60;;
4290;SDS011;2159;50.906;7.152;2023-05-13T03:18:48;10.03;;;7.10;;
4290;SDS011;2159;50.906;7.152;2023-05-13T03:21:17;6.90;;;6.30;;
4290;SDS011;2159;50.906;7.152;2023-05-13T03:23:44;7.13;;;6.43;;
4290;SDS011;2159;50.906;7.152;2023-05-13T03:26:12;6.77;;;6.10;;
4290;SDS011;2159;50.906;7.152;2023-05-13T03:28:39;6.30;;;5.70;;
4290;SDS011;2159;50.906;7.152;2023-05-13T03:31:07;8.10;;;6.10;;
4290;SDS011;2159;50.906;7.152;2023-05-13T03:33:34;7.00;;;6.40;;
4290;SDS011;2159;50.906;7.152;2023-05-13T03:36:02;7.77;;;6.80;;
4290;SDS011;2159;50.906;7.152;2023-05-13T03:38:31;11.30;;;6.20;;
4290;SDS011;2159;50.906;7.152;2023-05-13T03:40:59;7.17;;;6.57;;
4290;SDS011;2159;50.906;7.152;2023-05-13T03:43:26;6.60;;;6.00;;
4290;SDS011;2159;50.906;7.152;2023-05-13T03:45:54;7.80;;;6.70;;
4290;SDS011;2159;50.906;7.152;2023-05-13T03:48:21;11.73;;;6.53;;
4290;SDS011;2159;50.906;7.152;2023-05-13T03:50:49;9.00;;;6.07;;
4290;SDS011;2159;50.906;7.152;2023-05-13T03:53:18;8.80;;;6.40;;
4290;SDS011;2159;50.906;7.152;2023-05-13T03:55:47;7.00;;;6.40;;
4290;SDS011;2159;50.906;7.152;2023-05-13T03:58:15;6.87;;;6.17;;
4290;SDS011;2159;50.906;7.152;2023-05-13T04:00:43;7.30;;;6.60;;
4290;SDS011;2159;50.906;7.152;2023-05-13T04:03:12;6.50;;;5.90;;
4290;SDS011;2159;50.906;7.152;2023-05-13T04:05:41;9.30;;;6.43;;
4290;SDS011;2159;50.906;7.152;2023-05-13T04:08:09;7.07;;;6.30;;
4290;SDS011;2159;50.906;7.152;2023-05-13T04:10:37;6.37;;;5.77;;
4290;SDS011;2159;50.906;7.152;2023-05-13T04:13:06;7.57;;;6.20;;
4290;SDS011;2159;50.906;7.152;2023-05-13T04:15:33;8.27;;;6.07;;
4290;SDS011;2159;50.906;7.152;2023-05-13T04:18:01;7.87;;;6.20;;
4290;SDS011;2159;50.906;7.152;2023-05-13T04:20:28;9.03;;;5.80;;
4290;SDS011;2159;50.906;7.152;2023-05-13T04:22:56;9.87;;;6.57;;
4290;SDS011;2159;50.906;7.152;2023-05-13T04:25:23;10.90;;;6.13;;
4290;SDS011;2159;50.906;7.152;2023-05-13T04:27:51;9.50;;;6.50;;
4290;SDS011;2159;50.906;7.152;2023-05-13T04:30:20;7.80;;;6.60;;
4290;SDS011;2159;50.906;7.152;2023-05-13T04:32:47;6.80;;;5.77;;
4290;SDS011;2159;50.906;7.152;2023-05-13T04:35:15;6.77;;;6.17;;
4290;SDS011;2159;50.906;7.152;2023-05-13T04:37:43;7.33;;;6.47;;
4290;SDS011;2159;50.906;7.152;2023-05-13T04:40:10;7.53;;;6.83;;
4290;SDS011;2159;50.906;7.152;2023-05-13T04:42:38;7.20;;;6.50;;
4290;SDS011;2159;50.906;7.152;2023-05-13T04:45:06;7.50;;;6.60;;
4290;SDS011;2159;50.906;7.152;2023-05-13T04:47:35;9.93;;;6.60;;
4290;SDS011;2159;50.906;7.152;2023-05-13T04:50:03;8.57;;;6.17;;
4290;SDS011;2159;50.906;7.152;2023-05-13T04:52:31;7.37;;;6.70;;
4290;SDS011;2159;50.906;7.152;2023-05-13T04:55:01;6.30;;;5.80;;
4290;SDS011;2159;50.906;7.152;2023-05-13T04:57:28;7.50;;;6.80;;
4290;SDS011;2159;50.906;7.152;2023-05-13T04:59:58;6.60;;;6.00;;
4290;SDS011;2159;50.906;7.152;2023-05-13T05:02:25;7.97;;;6.53;;
4290;SDS011;2159;50.906;7.152;2023-05-13T05:04:56;11.03;;;6.33;;
4290;SDS011;2159;50.906;7.152;2023-05-13T05:07:23;8.40;;;6.67;;
4290;SDS011;2159;50.906;7.152;2023-05-13T05:09:51;7.47;;;6.77;;
4290;SDS011;2159;50.906;7.152;2023-05-13T05:12:19;10.60;;;6.60;;
4290;SDS011;2159;50.906;7.152;2023-05-13T05:14:46;9.30;;;6.33;;
4290;SDS011;2159;50.906;7.152;2023-05-13T05:17:14;7.10;;;6.40;;
4290;SDS011;2159;50.906;7.152;2023-05-13T05:19:42;8.13;;;6.60;;
4290;SDS011;2159;50.906;7.152;2023-05-13T05:22:10;10.27;;;6.87;;
4290;SDS011;2159;50.906;7.152;2023-05-13T05:24:38;8.33;;;6.73;;
4290;SDS011;2159;50.906;7.152;2023-05-13T05:27:05;11.73;;;6.80;;
4290;SDS011;2159;50.906;7.152;2023-05-13T05:29:33;9.30;;;7.20;;
4290;SDS011;2159;50.906;7.152;2023-05-13T05:32:00;9.27;;;6.80;;
4290;SDS011;2159;50.906;7.152;2023-05-13T05:34:28;7.57;;;6.87;;
4290;SDS011;2159;50.906;7.152;2023-05-13T05:36:55;9.70;;;8.07;;
4290;SDS011;2159;50.906;7.152;2023-05-13T05:39:24;7.10;;;6.40;;
4290;SDS011;2159;50.906;7.152;2023-05-13T05:41:52;8.83;;;6.40;;
4290;SDS011;2159;50.906;7.152;2023-05-13T05:44:20;7.63;;;6.80;;
4290;SDS011;2159;50.906;7.152;2023-05-13T05:46:48;7.57;;;6.87;;
4290;SDS011;2159;50.906;7.152;2023-05-13T05:49:17;10.90;;;7.53;;
4290;SDS011;2159;50.906;7.152;2023-05-13T05:51:44;12.83;;;7.90;;
4290;SDS011;2159;50.906;7.152;2023-05-13T05:54:12;8.13;;;7.33;;
4290;SDS011;2159;50.906;7.152;2023-05-13T05:56:41;13.17;;;7.10;;
4290;SDS011;2159;50.906;7.152;2023-05-13T05:59:08;9.33;;;7.70;;
4290;SDS011;2159;50.906;7.152;2023-05-13T06:01:35;8.47;;;7.60;;
4290;SDS011;2159;50.906;7.152;2023-05-13T06:04:03;10.87;;;7.30;;
4290;SDS011;2159;50.906;7.152;2023-05-13T06:06:32;8.20;;;7.40;;
4290;SDS011;2159;50.906;7.152;2023-05-13T06:08:59;9.03;;;7.47;;
4290;SDS011;2159;50.906;7.152;2023-05-13T06:11:27;11.40;;;7.87;;
4290;SDS011;2159;50.906;7.152;2023-05-13T06:13:56;9.10;;;8.23;;
4290;SDS011;2159;50.906;7.152;2023-05-13T06:16:23;14.30;;;8.43;;
4290;SDS011;2159;50.906;7.152;2023-05-13T06:18:51;11.27;;;9.07;;
4290;SDS011;2159;50.906;7.152;2023-05-13T06:21:19;12.90;;;9.33;;
4290;SDS011;2159;50.906;7.152;2023-05-13T06:23:46;11.80;;;10.27;;
4290;SDS011;2159;50.906;7.152;2023-05-13T06:26:14;12.33;;;9.90;;
4290;SDS011;2159;50.906;7.152;2023-05-13T06:28:41;10.57;;;9.17;;
4290;SDS011;2159;50.906;7.152;2023-05-13T06:31:10;14.20;;;9.23;;
4290;SDS011;2159;50.906;7.152;2023-05-13T06:33:38;10.80;;;9.70;;
4290;SDS011;2159;50.906;7.152;2023-05-13T06:36:06;13.70;;;10.03;;
4290;SDS011;2159;50.906;7.152;2023-05-13T06:38:34;9.97;;;8.70;;
4290;SDS011;2159;50.906;7.152;2023-05-13T06:41:02;11.50;;;10.20;;
4290;SDS011;2159;50.906;7.152;2023-05-13T06:43:29;12.87;;;9.70;;
4290;SDS011;2159;50.906;7.152;2023-05-13T06:45:57;12.17;;;9.53;;
4290;SDS011;2159;50.906;7.152;2023-05-13T06:48:26;15.17;;;9.30;;
4290;SDS011;2159;50.906;7.152;2023-05-13T06:50:53;11.77;;;9.00;;
4290;SDS011;2159;50.906;7.152;2023-05-13T06:53:21;8.90;;;7.97;;
4290;SDS011;2159;50.906;7.152;2023-05-13T06:55:48;13.40;;;9.03;;
4290;SDS011;2159;50.906;7.152;2023-05-13T06:58:16;9.80;;;8.80;;
4290;SDS011;2159;50.906;7.152;2023-05-13T07:00:43;10.50;;;8.30;;
4290;SDS011;2159;50.906;7.152;2023-05-13T07:03:12;9.43;;;8.47;;
4290;SDS011;2159;50.906;7.152;2023-05-13T07:05:40;9.90;;;8.37;;
4290;SDS011;2159;50.906;7.152;2023-05-13T07:08:08;9.60;;;8.60;;
4290;SDS011;2159;50.906;7.152;2023-05-13T07:10:36;10.30;;;8.70;;
4290;SDS011;2159;50.906;7.152;2023-05-13T07:13:03;10.30;;;8.53;;
4290;SDS011;2159;50.906;7.152;2023-05-13T07:15:31;8.83;;;7.90;;
4290;SDS011;2159;50.906;7.152;2023-05-13T07:17:58;11.50;;;8.47;;
4290;SDS011;2159;50.906;7.152;2023-05-13T07:20:26;9.47;;;7.00;;
4290;SDS011;2159;50.906;7.152;2023-05-13T07:22:55;9.73;;;7.50;;
4290;SDS011;2159;50.906;7.152;2023-05-13T07:25:22;8.50;;;7.70;;
4290;SDS011;2159;50.906;7.152;2023-05-13T07:27:50;9.60;;;8.03;;
4290;SDS011;2159;50.906;7.152;2023-05-13T07:30:17;8.90;;;8.00;;
4290;SDS011;2159;50.906;7.152;2023-05-13T07:32:46;8.00;;;7.20;;
4290;SDS011;2159;50.906;7.152;2023-05-13T07:35:13;8.73;;;7.80;;
4290;SDS011;2159;50.906;7.152;2023-05-13T07:37:42;7.80;;;7.10;;
4290;SDS011;2159;50.906;7.152;2023-05-13T07:40:11;7.80;;;6.50;;
4290;SDS011;2159;50.906;7.152;2023-05-13T07:42:39;6.93;;;6.23;;
4290;SDS011;2159;50.906;7.152;2023-05-13T07:45:07;8.97;;;7.57;;
4290;SDS011;2159;50.906;7.152;2023-05-13T07:47:34;8.67;;;6.33;;
4290;SDS011;2159;50.906;7.152;2023-05-13T07:50:02;10.40;;;7.60;;
4290;SDS011;2159;50.906;7.152;2023-05-13T07:52:30;8.93;;;7.20;;
4290;SDS011;2159;50.906;7.152;2023-05-13T07:54:58;12.13;;;6.13;;
4290;SDS011;2159;50.906;7.152;2023-05-13T07:57:26;7.33;;;6.30;;
4290;SDS011;2159;50.906;7.152;2023-05-13T07:59:54;9.57;;;6.17;;
4290;SDS011;2159;50.906;7.152;2023-05-13T08:02:21;7.70;;;6.33;;
4290;SDS011;2159;50.906;7.152;2023-05-13T08:04:49;7.50;;;5.93;;
4290;SDS011;2159;50.906;7.152;2023-05-13T08:07:17;7.23;;;6.20;;
4290;SDS011;2159;50.906;7.152;2023-05-13T08:09:44;6.27;;;5.67;;
4290;SDS011;2159;50.906;7.152;2023-05-13T08:12:12;6.20;;;5.70;;
4290;SDS011;2159;50.906;7.152;2023-05-13T08:14:40;9.40;;;5.10;;
4290;SDS011;2159;50.906;7.152;2023-05-13T08:17:08;8.20;;;5.83;;
4290;SDS011;2159;50.906;7.152;2023-05-13T08:19:35;8.90;;;5.40;;
4290;SDS011;2159;50.906;7.152;2023-05-13T08:22:03;5.57;;;5.17;;
4290;SDS011;2159;50.906;7.152;2023-05-13T08:24:31;6.13;;;5.53;;
4290;SDS011;2159;50.906;7.152;2023-05-13T08:26:58;5.90;;;5.20;;
4290;SDS011;2159;50.906;7.152;2023-05-13T08:29:25;6.10;;;5.43;;
4290;SDS011;2159;50.906;7.152;2023-05-13T08:31:54;7.50;;;5.23;;
4290;SDS011;2159;50.906;7.152;2023-05-13T08:34:22;5.83;;;5.23;;
4290;SDS011;2159;50.906;7.152;2023-05-13T08:36:49;6.87;;;5.57;;
4290;SDS011;2159;50.906;7.152;2023-05-13T08:39:16;5.90;;;5.03;;
4290;SDS011;2159;50.906;7.152;2023-05-13T08:41:44;5.43;;;4.93;;
4290;SDS011;2159;50.906;7.152;2023-05-13T08:44:12;5.23;;;4.70;;
4290;SDS011;2159;50.906;7.152;2023-05-13T08:46:40;5.93;;;4.90;;
4290;SDS011;2159;50.906;7.152;2023-05-13T08:49:12;5.40;;;4.90;;
4290;SDS011;2159;50.906;7.152;2023-05-13T08:51:39;5.87;;;5.00;;
4290;SDS011;2159;50.906;7.152;2023-05-13T08:54:08;5.33;;;4.77;;
4290;SDS011;2159;50.906;7.152;2023-05-13T08:56:35;8.23;;;5.20;;
4290;SDS011;2159;50.906;7.152;2023-05-13T08:59:03;8.40;;;4.80;;
4290;SDS011;2159;50.906;7.152;2023-05-13T09:01:30;7.83;;;4.60;;
4290;SDS011;2159;50.906;7.152;2023-05-13T09:04:00;5.33;;;4.83;;
4290;SDS011;2159;50.906;7.152;2023-05-13T09:06:28;4.93;;;4.50;;
4290;SDS011;2159;50.906;7.152;2023-05-13T09:08:56;5.43;;;4.70;;
4290;SDS011;2159;50.906;7.152;2023-05-13T09:11:23;7.17;;;5.00;;
4290;SDS011;2159;50.906;7.152;2023-05-13T09:13:57;7.10;;;5.00;;
4290;SDS011;2159;50.906;7.152;2023-05-13T09:16:26;5.40;;;4.90;;
4290;SDS011;2159;50.906;7.152;2023-05-13T09:18:55;5.90;;;4.50;;
4290;SDS011;2159;50.906;7.152;2023-05-13T09:21:23;5.07;;;4.57;;
4290;SDS011;2159;50.906;7.152;2023-05-13T09:23:56;6.30;;;5.20;;
4290;SDS011;2159;50.906;7.152;2023-05-13T09:26:28;8.40;;;5.40;;
4290;SDS011;2159;50.906;7.152;2023-05-13T09:29:15;5.63;;;5.00;;
4290;SDS011;2159;50.906;7.152;2023-05-13T09:31:44;6.67;;;5.43;;
4290;SDS011;2159;50.906;7.152;2023-05-13T09:34:11;7.50;;;4.97;;
4290;SDS011;2159;50.906;7.152;2023-05-13T09:36:39;5.73;;;5.23;;
4290;SDS011;2159;50.906;7.152;2023-05-13T09:39:08;5.33;;;4.83;;
4290;SDS011;2159;50.906;7.152;2023-05-13T09:41:37;8.03;;;5.40;;
4290;SDS011;2159;50.906;7.152;2023-05-13T09:44:05;6.90;;;5.77;;
4290;SDS011;2159;50.906;7.152;2023-05-13T09:46:34;6.73;;;5.27;;
4290;SDS011;2159;50.906;7.152;2023-05-13T09:49:01;8.13;;;5.40;;
4290;SDS011;2159;50.906;7.152;2023-05-13T09:51:30;8.80;;;5.50;;
4290;SDS011;2159;50.906;7.152;2023-05-13T09:54:01;6.73;;;6.10;;
4290;SDS011;2159;50.906;7.152;2023-05-13T09:56:31;8.20;;;4.80;;
4290;SDS011;2159;50.906;7.152;2023-05-13T09:58:58;8.93;;;5.20;;
4290;SDS011;2159;50.906;7.152;2023-05-13T10:01:26;7.80;;;5.67;;
4290;SDS011;2159;50.906;7.152;2023-05-13T10:03:54;6.37;;;5.60;;
4290;SDS011;2159;50.906;7.152;2023-05-13T10:06:22;9.27;;;6.13;;
4290;SDS011;2159;50.906;7.152;2023-05-13T10:08:51;8.33;;;6.00;;
4290;SDS011;2159;50.906;7.152;2023-05-13T10:11:18;7.60;;;6.80;;
4290;SDS011;2159;50.906;7.152;2023-05-13T10:13:48;7.93;;;6.20;;
4290;SDS011;2159;50.906;7.152;2023-05-13T10:16:16;12.57;;;6.63;;
4290;SDS011;2159;50.906;7.152;2023-05-13T10:18:44;7.67;;;6.43;;
4290;SDS011;2159;50.906;7.152;2023-05-13T10:21:13;6.60;;;3.87;;
4290;SDS011;2159;50.906;7.152;2023-05-13T10:23:41;3.77;;;3.23;;
4290;SDS011;2159;50.906;7.152;2023-05-13T10:26:09;3.73;;;3.30;;
4290;SDS011;2159;50.906;7.152;2023-05-13T10:28:36;3.73;;;3.43;;
4290;SDS011;2159;50.906;7.152;2023-05-13T10:31:05;3.47;;;3.27;;
4290;SDS011;2159;50.906;7.152;2023-05-13T10:33:33;4.00;;;3.70;;
4290;SDS011;2159;50.906;7.152;2023-05-13T10:36:05;4.20;;;3.80;;
4290;SDS011;2159;50.906;7.152;2023-05-13T10:38:38;4.27;;;3.97;;
4290;SDS011;2159;50.906;7.152;2023-05-13T10:41:09;4.93;;;4.40;;
4290;SDS011;2159;50.906;7.152;2023-05-13T10:43:37;7.33;;;5.30;;
4290;SDS011;2159;50.906;7.152;2023-05-13T10:46:07;10.30;;;5.70;;
4290;SDS011;2159;50.906;7.152;2023-05-13T10:48:37;7.60;;;4.60;;
4290;SDS011;2159;50.906;7.152;2023-05-13T10:51:05;9.80;;;4.53;;
4290;SDS011;2159;50.906;7.152;2023-05-13T10:53:35;5.03;;;4.53;;
4290;SDS011;2159;50.906;7.152;2023-05-13T10:56:03;9.37;;;5.00;;
4290;SDS011;2159;50.906;7.152;2023-05-13T10:58:33;11.03;;;5.30;;
4290;SDS011;2159;50.906;7.152;2023-05-13T11:01:13;6.23;;;5.57;;
4290;SDS011;2159;50.906;7.152;2023-05-13T11:03:41;7.93;;;5.60;;
4290;SDS011;2159;50.906;7.152;2023-05-13T11:06:16;6.33;;;5.73;;
4290;SDS011;2159;50.906;7.152;2023-05-13T11:08:45;9.97;;;5.90;;
4290;SDS011;2159;50.906;7.152;2023-05-13T11:14:05;8.23;;;5.80;;
4290;SDS011;2159;50.906;7.152;2023-05-13T11:16:35;6.97;;;5.20;;
4290;SDS011;2159;50.906;7.152;2023-05-13T11:19:05;6.00;;;4.90;;
4290;SDS011;2159;50.906;7.152;2023-05-13T11:21:35;6.13;;;5.53;;
4290;SDS011;2159;50.906;7.152;2023-05-13T11:24:05;8.20;;;4.60;;
4290;SDS011;2159;50.906;7.152;2023-05-13T11:26:46;4.80;;;3.57;;
4290;SDS011;2159;50.906;7.152;2023-05-13T11:29:14;3.47;;;3.20;;
4290;SDS011;2159;50.906;7.152;2023-05-13T11:31:43;7.53;;;4.33;;
4290;SDS011;2159;50.906;7.152;2023-05-13T11:34:12;4.77;;;4.30;;
4290;SDS011;2159;50.906;7.152;2023-05-13T11:36:40;6.67;;;5.20;;
4290;SDS011;2159;50.906;7.152;2023-05-13T11:39:09;6.17;;;5.57;;
4290;SDS011;2159;50.906;7.152;2023-05-13T11:41:40;6.70;;;5.53;;
4290;SDS011;2159;50.906;7.152;2023-05-13T11:44:09;7.30;;;5.70;;
4290;SDS011;2159;50.906;7.152;2023-05-13T11:46:36;10.40;;;5.47;;
4290;SDS011;2159;50.906;7.152;2023-05-13T11:49:05;5.80;;;5.20;;
4290;SDS011;2159;50.906;7.152;2023-05-13T11:51:33;5.60;;;5.10;;
4290;SDS011;2159;50.906;7.152;2023-05-13T11:54:01;7.83;;;5.50;;
4290;SDS011;2159;50.906;7.152;2023-05-13T11:56:28;6.13;;;5.50;;
4290;SDS011;2159;50.906;7.152;2023-05-13T11:59:11;6.27;;;4.60;;
4290;SDS011;2159;50.906;7.152;2023-05-13T12:01:39;4.30;;;3.60;;
4290;SDS011;2159;50.906;7.152;2023-05-13T12:04:08;3.97;;;3.57;;
4290;SDS011;2159;50.906;7.152;2023-05-13T12:06:42;3.40;;;3.20;;
4290;SDS011;2159;50.906;7.152;2023-05-13T12:09:10;5.53;;;3.50;;
4290;SDS011;2159;50.906;7.152;2023-05-13T12:11:38;4.10;;;3.70;;
4290;SDS011;2159;50.906;7.152;2023-05-13T12:14:06;6.93;;;3.33;;
4290;SDS011;2159;50.906;7.152;2023-05-13T12:16:34;3.50;;;3.20;;
4290;SDS011;2159;50.906;7.152;2023-05-13T12:19:03;3.40;;;3.20;;
4290;SDS011;2159;50.906;7.152;2023-05-13T12:21:32;5.43;;;3.30;;
4290;SDS011;2159;50.906;7.152;2023-05-13T12:24:00;3.57;;;3.27;;
4290;SDS011;2159;50.906;7.152;2023-05-13T12:26:27;3.60;;;3.27;;
4290;SDS011;2159;50.906;7.152;2023-05-13T12:28:55;3.20;;;2.90;;
4290;SDS011;2159;50.906;7.152;2023-05-13T12:31:23;3.70;;;3.40;;
4290;SDS011;2159;50.906;7.152;2023-05-13T12:33:50;3.27;;;2.93;;
4290;SDS011;2159;50.906;7.152;2023-05-13T12:36:18;3.30;;;2.70;;
4290;SDS011;2159;50.906;7.152;2023-05-13T12:38:57;4.20;;;2.80;;
4290;SDS011;2159;50.906;7.152;2023-05-13T12:41:26;3.27;;;2.80;;
4290;SDS011;2159;50.906;7.152;2023-05-13T12:43:55;3.40;;;2.60;;
4290;SDS011;2159;50.906;7.152;2023-05-13T12:46:23;3.23;;;3.03;;
4290;SDS011;2159;50.906;7.152;2023-05-13T12:48:51;4.37;;;2.90;;
4290;SDS011;2159;50.906;7.152;2023-05-13T12:51:18;3.47;;;3.20;;
4290;SDS011;2159;50.906;7.152;2023-05-13T12:53:46;3.20;;;3.00;;
4290;SDS011;2159;50.906;7.152;2023-05-13T12:56:15;3.90;;;3.30;;
4290;SDS011;2159;50.906;7.152;2023-05-13T12:58:42;3.17;;;2.97;;
4290;SDS011;2159;50.906;7.152;2023-05-13T13:01:09;3.27;;;3.07;;
4290;SDS011;2159;50.906;7.152;2023-05-13T13:03:37;5.60;;;3.47;;
4290;SDS011;2159;50.906;7.152;2023-05-13T13:06:05;3.77;;;3.50;;
4290;SDS011;2159;50.906;7.152;2023-05-13T13:08:32;9.30;;;3.70;;
4290;SDS011;2159;50.906;7.152;2023-05-13T13:11:00;3.80;;;3.50;;
4290;SDS011;2159;50.906;7.152;2023-05-13T13:13:29;3.90;;;3.40;;
4290;SDS011;2159;50.906;7.152;2023-05-13T13:15:56;4.00;;;3.60;;
4290;SDS011;2159;50.906;7.152;2023-05-13T13:18:24;5.30;;;4.13;;
4290;SDS011;2159;50.906;7.152;2023-05-13T13:20:51;4.80;;;4.30;;
4290;SDS011;2159;50.906;7.152;2023-05-13T13:23:19;4.00;;;3.70;;
4290;SDS011;2159;50.906;7.152;2023-05-13T13:25:46;4.10;;;3.43;;
4290;SDS011;2159;50.906;7.152;2023-05-13T13:28:14;4.50;;;3.80;;
4290;SDS011;2159;50.906;7.152;2023-05-13T13:30:43;3.93;;;3.50;;
4290;SDS011;2159;50.906;7.152;2023-05-13T13:33:13;4.23;;;3.90;;
4290;SDS011;2159;50.906;7.152;2023-05-13T13:35:41;3.30;;;3.10;;
4290;SDS011;2159;50.906;7.152;2023-05-13T13:38:08;4.53;;;3.50;;
4290;SDS011;2159;50.906;7.152;2023-05-13T13:40:36;4.00;;;3.67;;
4290;SDS011;2159;50.906;7.152;2023-05-13T13:43:04;4.43;;;3.80;;
4290;SDS011;2159;50.906;7.152;2023-05-13T13:45:32;5.13;;;3.50;;
4290;SDS011;2159;50.906;7.152;2023-05-13T13:48:01;3.53;;;3.20;;
4290;SDS011;2159;50.906;7.152;2023-05-13T13:50:28;3.57;;;3.30;;
4290;SDS011;2159;50.906;7.152;2023-05-13T13:52:56;3.80;;;3.50;;
4290;SDS011;2159;50.906;7.152;2023-05-13T13:55:25;3.53;;;3.33;;
4290;SDS011;2159;50.906;7.152;2023-05-13T13:57:53;3.67;;;3.33;;
4290;SDS011;2159;50.906;7.152;2023-05-13T14:00:20;4.10;;;3.50;;
4290;SDS011;2159;50.906;7.152;2023-05-13T14:02:48;3.70;;;3.50;;
4290;SDS011;2159;50.906;7.152;2023-05-13T14:05:17;4.60;;;3.83;;
4290;SDS011;2159;50.906;7.152;2023-05-13T14:07:45;3.97;;;3.67;;
4290;SDS011;2159;50.906;7.152;2023-05-13T14:10:13;3.97;;;3.67;;
4290;SDS011;2159;50.906;7.152;2023-05-13T14:12:41;4.10;;;3.70;;
4290;SDS011;2159;50.906;7.152;2023-05-13T14:15:09;3.97;;;3.67;;
4290;SDS011;2159;50.906;7.152;2023-05-13T14:17:36;4.47;;;3.60;;
4290;SDS011;2159;50.906;7.152;2023-05-13T14:20:04;6.90;;;4.57;;
4290;SDS011;2159;50.906;7.152;2023-05-13T14:22:33;7.57;;;3.87;;
4290;SDS011;2159;50.906;7.152;2023-05-13T14:25:01;4.50;;;4.10;;
4290;SDS011;2159;50.906;7.152;2023-05-13T14:27:28;7.23;;;4.13;;
4290;SDS011;2159;50.906;7.152;2023-05-13T14:29:56;4.33;;;3.97;;
4290;SDS011;2159;50.906;7.152;2023-05-13T14:32:24;4.60;;;4.20;;
4290;SDS011;2159;50.906;7.152;2023-05-13T14:34:51;5.43;;;3.90;;
4290;SDS011;2159;50.906;7.152;2023-05-13T14:37:19;4.77;;;4.30;;
4290;SDS011;2159;50.906;7.152;2023-05-13T14:39:47;4.60;;;4.20;;
4290;SDS011;2159;50.906;7.152;2023-05-13T14:42:15;5.30;;;4.70;;
4290;SDS011;2159;50.906;7.152;2023-05-13T14:44:43;4.77;;;4.37;;
4290;SDS011;2159;50.906;7.152;2023-05-13T14:47:10;5.10;;;4.70;;
4290;SDS011;2159;50.906;7.152;2023-05-13T14:49:38;4.63;;;4.27;;
4290;SDS011;2159;50.906;7.152;2023-05-13T14:52:05;4.93;;;4.53;;
4290;SDS011;2159;50.906;7.152;2023-05-13T14:54:33;4.60;;;4.20;;
4290;SDS011;2159;50.906;7.152;2023-05-13T14:57:02;5.00;;;4.50;;
4290;SDS011;2159;50.906;7.152;2023-05-13T14:59:31;4.63;;;4.23;;
4290;SDS011;2159;50.906;7.152;2023-05-13T15:01:59;4.37;;;4.07;;
4290;SDS011;2159;50.906;7.152;2023-05-13T15:04:27;4.90;;;4.00;;
4290;SDS011;2159;50.906;7.152;2023-05-13T15:06:54;4.30;;;4.00;;
4290;SDS011;2159;50.906;7.152;2023-05-13T15:09:21;3.80;;;3.43;;
4290;SDS011;2159;50.906;7.152;2023-05-13T15:11:49;5.10;;;3.83;;
4290;SDS011;2159;50.906;7.152;2023-05-13T15:14:18;4.40;;;4.00;;
4290;SDS011;2159;50.906;7.152;2023-05-13T15:16:46;4.00;;;3.70;;
4290;SDS011;2159;50.906;7.152;2023-05-13T15:19:14;4.27;;;3.97;;
4290;SDS011;2159;50.906;7.152;2023-05-13T15:21:41;3.80;;;3.60;;